Yorktown, Iowa
Current Conditions -  °F | °C
As of 6:15 PM on Wednesday 22 Oct 2014 (Local Time) from KICL Reporting Station
Clear Clear  
Wind Chill: 68°   Ceiling: Unl
Heat Index: 68°   Visibility: 10mi
Dew Point: 52°   Wind: 8mph
Humidity: 56%   Direction: 140°SE
Pressure: 30.07"   Gusts: NA
Location:  40.73°N, 95.16°W
Report Text: KICL 222315Z AUTO 14007KT 10SM CLR 20/11 A3007 RMK AO2
Loading
Personal Weather Stations






























Interactive Weather Map
Tropical Storm Tracking
New forecast layout! Learn more

10-Day Weather Forecast

Advertisements
Track Severe Weather on mobile